sensor_id;sensor_type;location;lat;lon;timestamp;P1;durP1;ratioP1;P2;durP2;ratioP2
47089;SDS011;32840;52.516;13.294;2023-02-21T00:01:27;8.65;;;5.60;;
47089;SDS011;32840;52.516;13.294;2023-02-21T00:04:31;7.53;;;5.28;;
47089;SDS011;32840;52.516;13.294;2023-02-21T00:07:35;7.78;;;5.50;;
47089;SDS011;32840;52.516;13.294;2023-02-21T00:10:38;7.93;;;5.63;;
47089;SDS011;32840;52.516;13.294;2023-02-21T00:13:42;6.60;;;4.88;;
47089;SDS011;32840;52.516;13.294;2023-02-21T00:16:45;7.55;;;4.88;;
47089;SDS011;32840;52.516;13.294;2023-02-21T00:19:49;8.20;;;6.03;;
47089;SDS011;32840;52.516;13.294;2023-02-21T00:22:52;8.02;;;5.75;;
47089;SDS011;32840;52.516;13.294;2023-02-21T00:25:55;7.38;;;5.63;;
47089;SDS011;32840;52.516;13.294;2023-02-21T00:28:59;7.38;;;5.53;;
47089;SDS011;32840;52.516;13.294;2023-02-21T00:32:02;7.43;;;4.85;;
47089;SDS011;32840;52.516;13.294;2023-02-21T00:35:07;9.20;;;6.10;;
47089;SDS011;32840;52.516;13.294;2023-02-21T00:38:10;8.10;;;5.93;;
47089;SDS011;32840;52.516;13.294;2023-02-21T00:41:14;7.43;;;5.32;;
47089;SDS011;32840;52.516;13.294;2023-02-21T00:44:17;8.85;;;6.15;;
47089;SDS011;32840;52.516;13.294;2023-02-21T00:47:20;8.95;;;6.25;;
47089;SDS011;32840;52.516;13.294;2023-02-21T00:50:24;7.97;;;5.60;;
47089;SDS011;32840;52.516;13.294;2023-02-21T00:53:27;9.43;;;6.30;;
47089;SDS011;32840;52.516;13.294;2023-02-21T00:56:31;8.75;;;6.05;;
47089;SDS011;32840;52.516;13.294;2023-02-21T00:59:34;9.10;;;6.35;;
47089;SDS011;32840;52.516;13.294;2023-02-21T01:02:37;8.50;;;5.93;;
47089;SDS011;32840;52.516;13.294;2023-02-21T01:05:41;10.07;;;6.22;;
47089;SDS011;32840;52.516;13.294;2023-02-21T01:08:44;9.07;;;6.43;;
47089;SDS011;32840;52.516;13.294;2023-02-21T01:11:48;9.90;;;6.93;;
47089;SDS011;32840;52.516;13.294;2023-02-21T01:14:52;9.68;;;6.97;;
47089;SDS011;32840;52.516;13.294;2023-02-21T01:17:55;9.70;;;7.00;;
47089;SDS011;32840;52.516;13.294;2023-02-21T01:20:58;9.68;;;6.60;;
47089;SDS011;32840;52.516;13.294;2023-02-21T01:24:02;10.05;;;7.47;;
47089;SDS011;32840;52.516;13.294;2023-02-21T01:27:07;12.77;;;7.78;;
47089;SDS011;32840;52.516;13.294;2023-02-21T01:30:10;10.90;;;7.15;;
47089;SDS011;32840;52.516;13.294;2023-02-21T01:33:13;11.73;;;8.23;;
47089;SDS011;32840;52.516;13.294;2023-02-21T01:36:16;11.82;;;7.75;;
47089;SDS011;32840;52.516;13.294;2023-02-21T01:39:20;12.25;;;8.15;;
47089;SDS011;32840;52.516;13.294;2023-02-21T01:42:23;14.20;;;8.95;;
47089;SDS011;32840;52.516;13.294;2023-02-21T01:45:40;13.88;;;8.60;;
47089;SDS011;32840;52.516;13.294;2023-02-21T01:48:47;10.30;;;7.78;;
47089;SDS011;32840;52.516;13.294;2023-02-21T01:51:52;11.10;;;7.80;;
47089;SDS011;32840;52.516;13.294;2023-02-21T01:54:56;12.50;;;8.70;;
47089;SDS011;32840;52.516;13.294;2023-02-21T01:58:01;10.80;;;8.55;;
47089;SDS011;32840;52.516;13.294;2023-02-21T02:01:05;14.32;;;8.77;;
47089;SDS011;32840;52.516;13.294;2023-02-21T02:04:09;11.60;;;8.45;;
47089;SDS011;32840;52.516;13.294;2023-02-21T02:07:13;10.65;;;7.55;;
47089;SDS011;32840;52.516;13.294;2023-02-21T02:10:16;13.10;;;8.68;;
47089;SDS011;32840;52.516;13.294;2023-02-21T02:13:35;12.57;;;8.43;;
47089;SDS011;32840;52.516;13.294;2023-02-21T02:16:40;12.80;;;9.20;;
47089;SDS011;32840;52.516;13.294;2023-02-21T02:28:58;13.23;;;8.88;;
47089;SDS011;32840;52.516;13.294;2023-02-21T02:32:17;14.50;;;9.20;;
47089;SDS011;32840;52.516;13.294;2023-02-21T02:35:21;13.57;;;9.50;;
47089;SDS011;32840;52.516;13.294;2023-02-21T02:41:45;14.30;;;9.30;;
47089;SDS011;32840;52.516;13.294;2023-02-21T02:44:40;12.32;;;8.93;;
47089;SDS011;32840;52.516;13.294;2023-02-21T02:47:33;12.95;;;9.13;;
47089;SDS011;32840;52.516;13.294;2023-02-21T02:50:20;12.30;;;8.52;;
47089;SDS011;32840;52.516;13.294;2023-02-21T02:53:07;13.60;;;9.90;;
47089;SDS011;32840;52.516;13.294;2023-02-21T02:55:54;16.77;;;11.30;;
47089;SDS011;32840;52.516;13.294;2023-02-21T02:58:43;15.93;;;10.00;;
47089;SDS011;32840;52.516;13.294;2023-02-21T03:11:12;17.13;;;9.30;;
47089;SDS011;32840;52.516;13.294;2023-02-21T03:16:50;15.90;;;10.88;;
47089;SDS011;32840;52.516;13.294;2023-02-21T03:19:41;15.35;;;9.43;;
47089;SDS011;32840;52.516;13.294;2023-02-21T03:22:30;14.43;;;9.98;;
47089;SDS011;32840;52.516;13.294;2023-02-21T03:25:15;14.77;;;10.05;;
47089;SDS011;32840;52.516;13.294;2023-02-21T03:28:01;13.85;;;9.85;;
47089;SDS011;32840;52.516;13.294;2023-02-21T03:30:47;15.52;;;10.38;;
47089;SDS011;32840;52.516;13.294;2023-02-21T03:33:36;12.93;;;9.38;;
47089;SDS011;32840;52.516;13.294;2023-02-21T03:36:20;13.95;;;9.55;;
47089;SDS011;32840;52.516;13.294;2023-02-21T03:39:07;18.17;;;9.80;;
47089;SDS011;32840;52.516;13.294;2023-02-21T03:41:51;14.45;;;9.43;;
47089;SDS011;32840;52.516;13.294;2023-02-21T03:44:36;12.40;;;8.57;;
47089;SDS011;32840;52.516;13.294;2023-02-21T03:47:21;13.98;;;9.65;;
47089;SDS011;32840;52.516;13.294;2023-02-21T03:50:06;14.43;;;9.85;;
47089;SDS011;32840;52.516;13.294;2023-02-21T03:52:51;11.93;;;8.43;;
47089;SDS011;32840;52.516;13.294;2023-02-21T03:55:37;12.68;;;8.35;;
47089;SDS011;32840;52.516;13.294;2023-02-21T03:58:21;13.57;;;9.27;;
47089;SDS011;32840;52.516;13.294;2023-02-21T04:01:06;14.40;;;9.02;;
47089;SDS011;32840;52.516;13.294;2023-02-21T04:03:51;14.57;;;9.73;;
47089;SDS011;32840;52.516;13.294;2023-02-21T04:06:37;12.25;;;8.55;;
47089;SDS011;32840;52.516;13.294;2023-02-21T04:09:22;14.43;;;9.13;;
47089;SDS011;32840;52.516;13.294;2023-02-21T04:12:09;12.93;;;9.20;;
47089;SDS011;32840;52.516;13.294;2023-02-21T04:14:53;14.13;;;9.57;;
47089;SDS011;32840;52.516;13.294;2023-02-21T04:17:39;13.52;;;8.88;;
47089;SDS011;32840;52.516;13.294;2023-02-21T04:20:24;13.18;;;9.25;;
47089;SDS011;32840;52.516;13.294;2023-02-21T04:23:09;15.15;;;9.73;;
47089;SDS011;32840;52.516;13.294;2023-02-21T04:25:54;13.98;;;10.13;;
47089;SDS011;32840;52.516;13.294;2023-02-21T04:28:38;13.30;;;9.60;;
47089;SDS011;32840;52.516;13.294;2023-02-21T04:31:23;13.45;;;9.73;;
47089;SDS011;32840;52.516;13.294;2023-02-21T04:34:09;13.43;;;9.05;;
47089;SDS011;32840;52.516;13.294;2023-02-21T04:36:54;14.38;;;9.30;;
47089;SDS011;32840;52.516;13.294;2023-02-21T04:39:39;12.43;;;9.45;;
47089;SDS011;32840;52.516;13.294;2023-02-21T04:42:24;13.18;;;9.18;;
47089;SDS011;32840;52.516;13.294;2023-02-21T04:45:09;15.40;;;10.85;;
47089;SDS011;32840;52.516;13.294;2023-02-21T04:47:54;14.20;;;10.02;;
47089;SDS011;32840;52.516;13.294;2023-02-21T04:50:38;14.18;;;9.85;;
47089;SDS011;32840;52.516;13.294;2023-02-21T04:53:23;13.32;;;9.80;;
47089;SDS011;32840;52.516;13.294;2023-02-21T04:56:08;16.25;;;10.45;;
47089;SDS011;32840;52.516;13.294;2023-02-21T04:58:54;16.42;;;11.13;;
47089;SDS011;32840;52.516;13.294;2023-02-21T05:01:39;15.20;;;10.10;;
47089;SDS011;32840;52.516;13.294;2023-02-21T05:04:24;14.65;;;9.68;;
47089;SDS011;32840;52.516;13.294;2023-02-21T05:07:09;15.70;;;11.52;;
47089;SDS011;32840;52.516;13.294;2023-02-21T05:09:54;15.50;;;10.63;;
47089;SDS011;32840;52.516;13.294;2023-02-21T05:12:39;16.05;;;10.40;;
47089;SDS011;32840;52.516;13.294;2023-02-21T05:15:24;15.40;;;10.10;;
47089;SDS011;32840;52.516;13.294;2023-02-21T05:18:09;16.13;;;10.65;;
47089;SDS011;32840;52.516;13.294;2023-02-21T05:20:53;17.92;;;10.15;;
47089;SDS011;32840;52.516;13.294;2023-02-21T05:23:39;16.05;;;10.05;;
47089;SDS011;32840;52.516;13.294;2023-02-21T05:26:25;16.65;;;11.13;;
47089;SDS011;32840;52.516;13.294;2023-02-21T05:29:16;15.43;;;9.88;;
47089;SDS011;32840;52.516;13.294;2023-02-21T05:32:03;17.05;;;11.05;;
47089;SDS011;32840;52.516;13.294;2023-02-21T05:34:47;16.10;;;11.27;;
47089;SDS011;32840;52.516;13.294;2023-02-21T05:37:33;16.10;;;10.18;;
47089;SDS011;32840;52.516;13.294;2023-02-21T05:40:17;14.65;;;10.35;;
47089;SDS011;32840;52.516;13.294;2023-02-21T05:43:07;15.18;;;10.70;;
47089;SDS011;32840;52.516;13.294;2023-02-21T05:45:52;15.25;;;10.60;;
47089;SDS011;32840;52.516;13.294;2023-02-21T05:48:37;16.30;;;10.52;;
47089;SDS011;32840;52.516;13.294;2023-02-21T05:51:22;15.55;;;10.32;;
47089;SDS011;32840;52.516;13.294;2023-02-21T05:54:10;18.08;;;10.75;;
47089;SDS011;32840;52.516;13.294;2023-02-21T05:56:58;17.27;;;10.70;;
47089;SDS011;32840;52.516;13.294;2023-02-21T05:59:43;14.73;;;10.50;;
47089;SDS011;32840;52.516;13.294;2023-02-21T06:02:27;16.13;;;10.77;;
47089;SDS011;32840;52.516;13.294;2023-02-21T06:05:12;14.43;;;9.95;;
47089;SDS011;32840;52.516;13.294;2023-02-21T06:07:58;13.23;;;8.88;;
47089;SDS011;32840;52.516;13.294;2023-02-21T06:10:43;17.85;;;11.43;;
47089;SDS011;32840;52.516;13.294;2023-02-21T06:13:28;17.55;;;11.20;;
47089;SDS011;32840;52.516;13.294;2023-02-21T06:16:15;14.05;;;9.50;;
47089;SDS011;32840;52.516;13.294;2023-02-21T06:19:00;15.10;;;9.90;;
47089;SDS011;32840;52.516;13.294;2023-02-21T06:21:47;14.98;;;8.82;;
47089;SDS011;32840;52.516;13.294;2023-02-21T06:24:32;17.42;;;11.00;;
47089;SDS011;32840;52.516;13.294;2023-02-21T06:27:17;17.25;;;10.38;;
47089;SDS011;32840;52.516;13.294;2023-02-21T06:30:02;20.25;;;12.70;;
47089;SDS011;32840;52.516;13.294;2023-02-21T06:32:48;20.20;;;11.63;;
47089;SDS011;32840;52.516;13.294;2023-02-21T06:35:34;15.07;;;8.68;;
47089;SDS011;32840;52.516;13.294;2023-02-21T06:38:19;13.85;;;9.50;;
47089;SDS011;32840;52.516;13.294;2023-02-21T06:41:05;14.98;;;9.80;;
47089;SDS011;32840;52.516;13.294;2023-02-21T06:43:51;12.27;;;8.18;;
47089;SDS011;32840;52.516;13.294;2023-02-21T06:46:36;13.52;;;9.25;;
47089;SDS011;32840;52.516;13.294;2023-02-21T06:49:22;13.95;;;8.65;;
47089;SDS011;32840;52.516;13.294;2023-02-21T06:52:07;21.23;;;12.18;;
47089;SDS011;32840;52.516;13.294;2023-02-21T06:54:52;15.50;;;10.38;;
47089;SDS011;32840;52.516;13.294;2023-02-21T06:57:37;18.58;;;10.70;;
47089;SDS011;32840;52.516;13.294;2023-02-21T07:00:22;14.43;;;9.25;;
47089;SDS011;32840;52.516;13.294;2023-02-21T07:03:06;15.15;;;9.00;;
47089;SDS011;32840;52.516;13.294;2023-02-21T07:05:54;12.07;;;7.85;;
47089;SDS011;32840;52.516;13.294;2023-02-21T07:08:39;13.55;;;8.43;;
47089;SDS011;32840;52.516;13.294;2023-02-21T07:11:24;14.18;;;9.30;;
47089;SDS011;32840;52.516;13.294;2023-02-21T07:14:17;14.90;;;11.23;;
47089;SDS011;32840;52.516;13.294;2023-02-21T07:17:02;14.13;;;9.10;;
47089;SDS011;32840;52.516;13.294;2023-02-21T07:19:47;10.95;;;7.07;;
47089;SDS011;32840;52.516;13.294;2023-02-21T07:22:32;11.77;;;7.38;;
47089;SDS011;32840;52.516;13.294;2023-02-21T07:25:18;18.63;;;13.35;;
47089;SDS011;32840;52.516;13.294;2023-02-21T07:28:04;12.38;;;7.00;;
47089;SDS011;32840;52.516;13.294;2023-02-21T07:30:49;9.32;;;6.22;;
47089;SDS011;32840;52.516;13.294;2023-02-21T07:33:34;9.25;;;6.40;;
47089;SDS011;32840;52.516;13.294;2023-02-21T07:36:24;11.00;;;6.90;;
47089;SDS011;32840;52.516;13.294;2023-02-21T07:39:09;7.95;;;5.50;;
47089;SDS011;32840;52.516;13.294;2023-02-21T07:41:53;18.98;;;12.50;;
47089;SDS011;32840;52.516;13.294;2023-02-21T07:44:42;9.45;;;6.35;;
47089;SDS011;32840;52.516;13.294;2023-02-21T07:47:27;9.27;;;5.70;;
47089;SDS011;32840;52.516;13.294;2023-02-21T07:50:16;9.57;;;5.43;;
47089;SDS011;32840;52.516;13.294;2023-02-21T07:53:11;7.15;;;4.90;;
47089;SDS011;32840;52.516;13.294;2023-02-21T07:56:03;6.93;;;4.60;;
47089;SDS011;32840;52.516;13.294;2023-02-21T07:59:26;7.05;;;4.57;;
47089;SDS011;32840;52.516;13.294;2023-02-21T08:02:16;5.85;;;3.97;;
47089;SDS011;32840;52.516;13.294;2023-02-21T08:05:03;6.35;;;3.60;;
47089;SDS011;32840;52.516;13.294;2023-02-21T08:07:49;7.55;;;3.80;;
47089;SDS011;32840;52.516;13.294;2023-02-21T08:10:34;4.65;;;3.03;;
47089;SDS011;32840;52.516;13.294;2023-02-21T08:13:20;4.55;;;2.58;;
47089;SDS011;32840;52.516;13.294;2023-02-21T08:16:06;6.00;;;3.08;;
47089;SDS011;32840;52.516;13.294;2023-02-21T08:18:51;3.72;;;2.30;;
47089;SDS011;32840;52.516;13.294;2023-02-21T08:21:37;3.28;;;2.15;;
47089;SDS011;32840;52.516;13.294;2023-02-21T08:24:23;4.93;;;1.80;;
47089;SDS011;32840;52.516;13.294;2023-02-21T08:27:08;3.45;;;1.98;;
47089;SDS011;32840;52.516;13.294;2023-02-21T08:29:54;3.63;;;1.92;;
47089;SDS011;32840;52.516;13.294;2023-02-21T08:32:39;8.40;;;1.80;;
47089;SDS011;32840;52.516;13.294;2023-02-21T08:35:24;2.47;;;1.13;;
47089;SDS011;32840;52.516;13.294;2023-02-21T08:38:09;2.35;;;1.23;;
47089;SDS011;32840;52.516;13.294;2023-02-21T08:40:54;5.65;;;1.35;;
47089;SDS011;32840;52.516;13.294;2023-02-21T08:43:40;3.42;;;1.20;;
47089;SDS011;32840;52.516;13.294;2023-02-21T08:46:25;2.63;;;1.17;;
47089;SDS011;32840;52.516;13.294;2023-02-21T08:49:12;1.88;;;0.88;;
47089;SDS011;32840;52.516;13.294;2023-02-21T08:51:57;6.05;;;2.17;;
47089;SDS011;32840;52.516;13.294;2023-02-21T08:54:42;2.08;;;1.10;;
47089;SDS011;32840;52.516;13.294;2023-02-21T08:57:27;3.53;;;1.45;;
47089;SDS011;32840;52.516;13.294;2023-02-21T09:00:14;3.83;;;1.75;;
47089;SDS011;32840;52.516;13.294;2023-02-21T09:03:00;7.35;;;1.48;;
47089;SDS011;32840;52.516;13.294;2023-02-21T09:05:44;2.95;;;1.23;;
47089;SDS011;32840;52.516;13.294;2023-02-21T09:08:31;4.82;;;1.85;;
47089;SDS011;32840;52.516;13.294;2023-02-21T09:11:18;3.13;;;1.80;;
47089;SDS011;32840;52.516;13.294;2023-02-21T09:14:06;3.78;;;1.48;;
47089;SDS011;32840;52.516;13.294;2023-02-21T09:16:51;2.42;;;1.30;;
47089;SDS011;32840;52.516;13.294;2023-02-21T09:19:36;2.88;;;1.52;;
47089;SDS011;32840;52.516;13.294;2023-02-21T09:22:21;6.65;;;2.35;;
47089;SDS011;32840;52.516;13.294;2023-02-21T09:25:06;2.58;;;1.55;;
47089;SDS011;32840;52.516;13.294;2023-02-21T09:27:56;4.15;;;1.90;;
47089;SDS011;32840;52.516;13.294;2023-02-21T09:30:43;3.83;;;2.35;;
47089;SDS011;32840;52.516;13.294;2023-02-21T09:33:28;4.65;;;2.13;;
47089;SDS011;32840;52.516;13.294;2023-02-21T09:36:15;3.38;;;1.85;;
47089;SDS011;32840;52.516;13.294;2023-02-21T09:39:00;4.30;;;2.22;;
47089;SDS011;32840;52.516;13.294;2023-02-21T09:41:50;5.05;;;1.88;;
47089;SDS011;32840;52.516;13.294;2023-02-21T09:44:36;4.00;;;1.73;;
47089;SDS011;32840;52.516;13.294;2023-02-21T09:47:29;4.32;;;2.05;;
47089;SDS011;32840;52.516;13.294;2023-02-21T09:50:19;8.88;;;5.82;;
47089;SDS011;32840;52.516;13.294;2023-02-21T09:53:12;5.13;;;2.42;;
47089;SDS011;32840;52.516;13.294;2023-02-21T09:56:04;5.78;;;2.08;;
47089;SDS011;32840;52.516;13.294;2023-02-21T09:59:09;7.57;;;2.20;;
47089;SDS011;32840;52.516;13.294;2023-02-21T10:01:59;9.33;;;2.20;;
47089;SDS011;32840;52.516;13.294;2023-02-21T10:05:17;10.63;;;2.85;;
47089;SDS011;32840;52.516;13.294;2023-02-21T10:17:48;8.77;;;2.85;;
47089;SDS011;32840;52.516;13.294;2023-02-21T10:20:56;6.93;;;2.08;;
47089;SDS011;32840;52.516;13.294;2023-02-21T10:23:49;10.15;;;2.78;;
47089;SDS011;32840;52.516;13.294;2023-02-21T10:26:36;6.60;;;2.15;;
47089;SDS011;32840;52.516;13.294;2023-02-21T10:29:28;7.18;;;1.95;;
47089;SDS011;32840;52.516;13.294;2023-02-21T10:32:35;6.07;;;1.70;;
47089;SDS011;32840;52.516;13.294;2023-02-21T10:35:22;8.10;;;2.47;;
47089;SDS011;32840;52.516;13.294;2023-02-21T10:38:11;7.22;;;2.45;;
47089;SDS011;32840;52.516;13.294;2023-02-21T10:41:01;5.20;;;1.65;;
47089;SDS011;32840;52.516;13.294;2023-02-21T10:43:48;5.75;;;1.60;;
47089;SDS011;32840;52.516;13.294;2023-02-21T10:46:42;5.68;;;1.30;;
47089;SDS011;32840;52.516;13.294;2023-02-21T10:49:49;5.22;;;1.40;;
47089;SDS011;32840;52.516;13.294;2023-02-21T10:52:48;6.15;;;1.40;;
47089;SDS011;32840;52.516;13.294;2023-02-21T10:55:34;5.88;;;1.40;;
47089;SDS011;32840;52.516;13.294;2023-02-21T10:58:21;5.38;;;1.35;;
47089;SDS011;32840;52.516;13.294;2023-02-21T11:01:16;9.45;;;2.90;;
47089;SDS011;32840;52.516;13.294;2023-02-21T11:07:12;7.93;;;3.25;;
47089;SDS011;32840;52.516;13.294;2023-02-21T11:10:00;6.53;;;1.50;;
47089;SDS011;32840;52.516;13.294;2023-02-21T11:12:54;8.77;;;3.78;;
47089;SDS011;32840;52.516;13.294;2023-02-21T11:15:49;4.50;;;1.33;;
47089;SDS011;32840;52.516;13.294;2023-02-21T11:19:04;11.73;;;2.85;;
47089;SDS011;32840;52.516;13.294;2023-02-21T11:21:56;12.93;;;2.30;;
47089;SDS011;32840;52.516;13.294;2023-02-21T11:25:00;6.35;;;1.58;;
47089;SDS011;32840;52.516;13.294;2023-02-21T11:28:14;6.10;;;1.30;;
47089;SDS011;32840;52.516;13.294;2023-02-21T11:34:21;14.25;;;4.95;;
47089;SDS011;32840;52.516;13.294;2023-02-21T11:37:13;9.60;;;2.15;;
47089;SDS011;32840;52.516;13.294;2023-02-21T11:39:59;13.25;;;3.42;;
47089;SDS011;32840;52.516;13.294;2023-02-21T11:42:44;7.82;;;2.50;;
47089;SDS011;32840;52.516;13.294;2023-02-21T11:45:29;7.28;;;1.88;;
47089;SDS011;32840;52.516;13.294;2023-02-21T11:48:14;11.70;;;3.35;;
47089;SDS011;32840;52.516;13.294;2023-02-21T11:51:07;12.27;;;2.08;;
47089;SDS011;32840;52.516;13.294;2023-02-21T11:54:08;5.97;;;2.10;;
47089;SDS011;32840;52.516;13.294;2023-02-21T12:06:27;11.82;;;2.65;;
47089;SDS011;32840;52.516;13.294;2023-02-21T12:09:40;9.95;;;2.00;;
47089;SDS011;32840;52.516;13.294;2023-02-21T12:12:40;7.50;;;2.25;;
47089;SDS011;32840;52.516;13.294;2023-02-21T12:19:04;8.52;;;2.10;;
47089;SDS011;32840;52.516;13.294;2023-02-21T12:22:13;10.50;;;1.95;;
47089;SDS011;32840;52.516;13.294;2023-02-21T12:28:43;7.53;;;1.95;;
47089;SDS011;32840;52.516;13.294;2023-02-21T12:32:14;11.73;;;2.35;;
47089;SDS011;32840;52.516;13.294;2023-02-21T12:35:13;16.55;;;2.83;;
47089;SDS011;32840;52.516;13.294;2023-02-21T12:38:26;10.93;;;1.92;;
47089;SDS011;32840;52.516;13.294;2023-02-21T12:51:10;13.27;;;2.50;;
47089;SDS011;32840;52.516;13.294;2023-02-21T12:54:14;10.93;;;1.77;;
47089;SDS011;32840;52.516;13.294;2023-02-21T12:57:13;10.40;;;2.67;;
47089;SDS011;32840;52.516;13.294;2023-02-21T13:03:40;27.90;;;11.75;;
47089;SDS011;32840;52.516;13.294;2023-02-21T13:06:54;11.35;;;2.60;;
47089;SDS011;32840;52.516;13.294;2023-02-21T13:09:56;11.82;;;2.33;;
47089;SDS011;32840;52.516;13.294;2023-02-21T13:13:12;10.23;;;2.25;;
47089;SDS011;32840;52.516;13.294;2023-02-21T13:16:02;7.38;;;2.22;;
47089;SDS011;32840;52.516;13.294;2023-02-21T13:19:00;16.35;;;3.00;;
47089;SDS011;32840;52.516;13.294;2023-02-21T13:25:03;11.45;;;2.35;;
47089;SDS011;32840;52.516;13.294;2023-02-21T13:28:13;14.35;;;2.70;;
47089;SDS011;32840;52.516;13.294;2023-02-21T13:31:21;11.77;;;2.78;;
47089;SDS011;32840;52.516;13.294;2023-02-21T13:34:09;10.63;;;3.03;;
47089;SDS011;32840;52.516;13.294;2023-02-21T13:37:00;15.65;;;3.20;;
47089;SDS011;32840;52.516;13.294;2023-02-21T13:39:50;12.77;;;2.67;;
47089;SDS011;32840;52.516;13.294;2023-02-21T13:42:37;11.90;;;2.22;;
47089;SDS011;32840;52.516;13.294;2023-02-21T13:45:23;8.68;;;1.90;;
47089;SDS011;32840;52.516;13.294;2023-02-21T13:51:06;15.57;;;4.43;;
47089;SDS011;32840;52.516;13.294;2023-02-21T13:54:28;12.73;;;2.85;;
47089;SDS011;32840;52.516;13.294;2023-02-21T13:57:32;11.45;;;2.10;;
47089;SDS011;32840;52.516;13.294;2023-02-21T14:08:53;6.80;;;2.17;;
47089;SDS011;32840;52.516;13.294;2023-02-21T14:11:48;15.13;;;2.75;;
47089;SDS011;32840;52.516;13.294;2023-02-21T14:14:36;18.98;;;3.60;;
47089;SDS011;32840;52.516;13.294;2023-02-21T14:17:26;10.07;;;2.42;;
47089;SDS011;32840;52.516;13.294;2023-02-21T14:20:15;16.00;;;2.85;;
47089;SDS011;32840;52.516;13.294;2023-02-21T14:23:02;11.00;;;2.20;;
47089;SDS011;32840;52.516;13.294;2023-02-21T14:25:55;9.60;;;2.10;;
47089;SDS011;32840;52.516;13.294;2023-02-21T14:28:59;21.85;;;8.60;;
47089;SDS011;32840;52.516;13.294;2023-02-21T14:31:54;15.98;;;3.22;;
47089;SDS011;32840;52.516;13.294;2023-02-21T14:37:36;15.13;;;4.38;;
47089;SDS011;32840;52.516;13.294;2023-02-21T14:44:08;14.32;;;3.47;;
47089;SDS011;32840;52.516;13.294;2023-02-21T14:57:18;14.88;;;3.28;;
47089;SDS011;32840;52.516;13.294;2023-02-21T15:00:31;22.23;;;3.78;;
47089;SDS011;32840;52.516;13.294;2023-02-21T15:03:23;20.13;;;2.72;;
47089;SDS011;32840;52.516;13.294;2023-02-21T15:06:17;11.77;;;2.65;;
47089;SDS011;32840;52.516;13.294;2023-02-21T15:09:11;17.27;;;3.38;;
47089;SDS011;32840;52.516;13.294;2023-02-21T15:12:03;22.05;;;8.32;;
47089;SDS011;32840;52.516;13.294;2023-02-21T15:14:53;14.52;;;3.42;;
47089;SDS011;32840;52.516;13.294;2023-02-21T15:17:38;16.40;;;3.60;;
47089;SDS011;32840;52.516;13.294;2023-02-21T15:20:23;12.65;;;3.05;;
47089;SDS011;32840;52.516;13.294;2023-02-21T15:25:54;17.95;;;3.50;;
47089;SDS011;32840;52.516;13.294;2023-02-21T15:28:40;16.02;;;5.07;;
47089;SDS011;32840;52.516;13.294;2023-02-21T15:31:25;81.95;;;43.33;;
47089;SDS011;32840;52.516;13.294;2023-02-21T15:34:18;22.33;;;7.72;;
47089;SDS011;32840;52.516;13.294;2023-02-21T15:37:15;15.43;;;3.88;;
47089;SDS011;32840;52.516;13.294;2023-02-21T15:40:12;20.55;;;3.13;;
47089;SDS011;32840;52.516;13.294;2023-02-21T15:43:01;24.35;;;3.67;;
47089;SDS011;32840;52.516;13.294;2023-02-21T15:45:47;16.83;;;3.53;;
47089;SDS011;32840;52.516;13.294;2023-02-21T15:48:35;15.30;;;4.32;;
47089;SDS011;32840;52.516;13.294;2023-02-21T15:51:20;10.85;;;3.33;;
47089;SDS011;32840;52.516;13.294;2023-02-21T15:54:06;13.05;;;2.90;;
47089;SDS011;32840;52.516;13.294;2023-02-21T15:57:01;18.20;;;7.10;;
47089;SDS011;32840;52.516;13.294;2023-02-21T16:00:15;10.50;;;3.38;;
47089;SDS011;32840;52.516;13.294;2023-02-21T16:12:03;20.65;;;8.55;;
47089;SDS011;32840;52.516;13.294;2023-02-21T16:18:06;16.08;;;3.50;;
47089;SDS011;32840;52.516;13.294;2023-02-21T16:21:04;16.20;;;3.25;;
47089;SDS011;32840;52.516;13.294;2023-02-21T16:23:50;15.95;;;3.47;;
47089;SDS011;32840;52.516;13.294;2023-02-21T16:26:35;18.35;;;3.60;;
47089;SDS011;32840;52.516;13.294;2023-02-21T16:29:20;20.50;;;3.20;;
47089;SDS011;32840;52.516;13.294;2023-02-21T16:32:13;18.20;;;4.05;;
47089;SDS011;32840;52.516;13.294;2023-02-21T16:35:04;19.33;;;6.65;;
47089;SDS011;32840;52.516;13.294;2023-02-21T16:37:50;21.45;;;6.03;;
47089;SDS011;32840;52.516;13.294;2023-02-21T16:40:40;23.27;;;5.18;;
47089;SDS011;32840;52.516;13.294;2023-02-21T16:43:26;25.30;;;5.13;;
47089;SDS011;32840;52.516;13.294;2023-02-21T16:46:12;21.00;;;3.50;;
47089;SDS011;32840;52.516;13.294;2023-02-21T16:48:58;19.70;;;3.40;;
47089;SDS011;32840;52.516;13.294;2023-02-21T16:51:44;23.05;;;8.88;;
47089;SDS011;32840;52.516;13.294;2023-02-21T16:54:28;37.00;;;16.15;;
47089;SDS011;32840;52.516;13.294;2023-02-21T16:57:13;19.67;;;5.40;;
47089;SDS011;32840;52.516;13.294;2023-02-21T16:59:58;25.35;;;9.25;;
47089;SDS011;32840;52.516;13.294;2023-02-21T17:02:43;38.05;;;14.27;;
47089;SDS011;32840;52.516;13.294;2023-02-21T17:05:28;22.02;;;7.50;;
47089;SDS011;32840;52.516;13.294;2023-02-21T17:08:13;30.33;;;7.70;;
47089;SDS011;32840;52.516;13.294;2023-02-21T17:10:59;19.55;;;5.63;;
47089;SDS011;32840;52.516;13.294;2023-02-21T17:13:44;19.10;;;5.10;;
47089;SDS011;32840;52.516;13.294;2023-02-21T17:16:29;17.27;;;4.80;;
47089;SDS011;32840;52.516;13.294;2023-02-21T17:19:15;19.70;;;5.30;;
47089;SDS011;32840;52.516;13.294;2023-02-21T17:22:01;17.35;;;5.22;;
47089;SDS011;32840;52.516;13.294;2023-02-21T17:24:46;16.42;;;4.22;;
47089;SDS011;32840;52.516;13.294;2023-02-21T17:27:31;19.23;;;4.40;;
47089;SDS011;32840;52.516;13.294;2023-02-21T17:30:17;25.73;;;6.80;;
47089;SDS011;32840;52.516;13.294;2023-02-21T17:33:03;23.33;;;7.20;;
47089;SDS011;32840;52.516;13.294;2023-02-21T17:35:51;18.90;;;5.75;;
47089;SDS011;32840;52.516;13.294;2023-02-21T17:38:36;20.65;;;6.78;;
47089;SDS011;32840;52.516;13.294;2023-02-21T17:41:23;19.90;;;5.00;;
47089;SDS011;32840;52.516;13.294;2023-02-21T17:44:08;27.90;;;5.30;;
47089;SDS011;32840;52.516;13.294;2023-02-21T17:46:54;16.20;;;5.38;;
47089;SDS011;32840;52.516;13.294;2023-02-21T17:49:40;16.23;;;4.63;;
47089;SDS011;32840;52.516;13.294;2023-02-21T17:52:25;17.02;;;3.97;;
47089;SDS011;32840;52.516;13.294;2023-02-21T17:55:11;17.70;;;5.13;;
47089;SDS011;32840;52.516;13.294;2023-02-21T17:58:04;21.05;;;5.68;;
47089;SDS011;32840;52.516;13.294;2023-02-21T18:00:49;20.92;;;4.80;;
47089;SDS011;32840;52.516;13.294;2023-02-21T18:03:34;20.10;;;5.50;;
47089;SDS011;32840;52.516;13.294;2023-02-21T18:06:20;29.65;;;5.97;;
47089;SDS011;32840;52.516;13.294;2023-02-21T18:09:08;21.77;;;5.32;;
47089;SDS011;32840;52.516;13.294;2023-02-21T18:11:54;18.52;;;4.80;;
47089;SDS011;32840;52.516;13.294;2023-02-21T18:14:40;17.83;;;4.13;;
47089;SDS011;32840;52.516;13.294;2023-02-21T18:17:25;23.52;;;5.28;;
47089;SDS011;32840;52.516;13.294;2023-02-21T18:20:10;18.92;;;5.03;;
47089;SDS011;32840;52.516;13.294;2023-02-21T18:22:55;23.27;;;4.38;;
47089;SDS011;32840;52.516;13.294;2023-02-21T18:25:40;20.85;;;5.60;;
47089;SDS011;32840;52.516;13.294;2023-02-21T18:28:25;19.27;;;4.68;;
47089;SDS011;32840;52.516;13.294;2023-02-21T18:31:13;23.85;;;5.68;;
47089;SDS011;32840;52.516;13.294;2023-02-21T18:34:00;16.23;;;3.85;;
47089;SDS011;32840;52.516;13.294;2023-02-21T18:36:47;20.38;;;5.15;;
47089;SDS011;32840;52.516;13.294;2023-02-21T18:39:33;20.70;;;5.47;;
47089;SDS011;32840;52.516;13.294;2023-02-21T18:42:19;16.70;;;4.30;;